WITT/BTJ METAR and TAF weather

Enter ICAO airport designator
Station Type Date Time Source
WITT METAR UTC NOAA

Error!


Station Type Date Time Source
WITT Decoded METAR UTC NOAA

Error!

Station Type Date Time Source
WITT TAF 2019/02/20 06:00 UTC NOAA

TAF WITT 200500Z 2006/2106 14008KT 9999 SCT018
TEMPO 2006/2010 04011KT 4000 TSRA FEW016CB SCT017
BECMG 2012/2014 15006KT 8000


Example: see airport list